createdAt,value
2018-12-13T00:00:05.499Z,102782.06
2018-12-13T00:02:33.317Z,102780.22
2018-12-13T00:05:01.139Z,102769.16
2018-12-13T00:07:28.911Z,102766.72
2018-12-13T00:09:56.770Z,102768.20
2018-12-13T00:12:24.517Z,102761.97
2018-12-13T00:14:52.237Z,102759.31
2018-12-13T00:17:19.999Z,102756.72
2018-12-13T00:19:47.742Z,102755.97
2018-12-13T00:22:15.520Z,102759.69
2018-12-13T00:24:43.980Z,102760.09
2018-12-13T00:27:11.824Z,102757.27
2018-12-13T00:29:39.533Z,102751.34
2018-12-13T00:32:07.320Z,102748.42
2018-12-13T00:34:35.192Z,102737.27
2018-12-13T00:37:02.988Z,102741.45
2018-12-13T00:39:30.780Z,102738.44
2018-12-13T00:41:58.595Z,102745.13
2018-12-13T00:44:26.339Z,102746.94
2018-12-13T00:46:54.077Z,102741.44
2018-12-13T00:49:21.862Z,102738.58
2018-12-13T00:51:49.639Z,102742.12
2018-12-13T00:54:17.386Z,102739.34
2018-12-13T00:56:45.233Z,102739.14
2018-12-13T00:59:12.974Z,102741.85
2018-12-13T01:01:40.748Z,102730.62
2018-12-13T01:04:08.616Z,102725.81
2018-12-13T01:06:36.415Z,102732.69
2018-12-13T01:09:05.440Z,102729.85
2018-12-13T01:11:33.224Z,102733.64
2018-12-13T01:14:01.065Z,102735.96
2018-12-13T01:16:28.813Z,102735.29
2018-12-13T01:18:56.588Z,102735.30
2018-12-13T01:21:24.355Z,102725.67
2018-12-13T01:23:52.176Z,102731.94
2018-12-13T01:26:19.928Z,102724.03
2018-12-13T01:28:47.648Z,102722.27
2018-12-13T01:31:15.429Z,102720.89
2018-12-13T01:33:43.177Z,102721.16
2018-12-13T01:36:10.937Z,102717.13
2018-12-13T01:38:38.732Z,102721.55
2018-12-13T01:41:06.472Z,102721.67
2018-12-13T01:43:34.227Z,102724.59
2018-12-13T01:46:01.976Z,102723.89
2018-12-13T01:48:29.714Z,102723.61
2018-12-13T01:50:57.472Z,102712.09
2018-12-13T01:53:25.238Z,102718.91
2018-12-13T01:55:53.000Z,102715.45
2018-12-13T01:58:20.744Z,102713.86
2018-12-13T02:00:48.477Z,102713.96
2018-12-13T02:03:16.206Z,102711.09
2018-12-13T02:05:44.066Z,102710.36
2018-12-13T02:08:11.835Z,102711.13
2018-12-13T02:10:39.580Z,102708.20
2018-12-13T02:13:07.349Z,102709.06
2018-12-13T02:15:35.053Z,102712.20
2018-12-13T02:18:02.793Z,102707.25
2018-12-13T02:20:31.464Z,102703.37
2018-12-13T02:22:59.208Z,102705.81
2018-12-13T02:25:26.960Z,102702.22
2018-12-13T02:27:54.813Z,102702.58
2018-12-13T02:30:23.587Z,102698.08
2018-12-13T02:32:51.321Z,102695.23
2018-12-13T02:35:19.088Z,102699.92
2018-12-13T02:37:46.876Z,102701.46
2018-12-13T02:40:15.352Z,102698.13
2018-12-13T02:42:43.097Z,102699.70
2018-12-13T02:45:10.867Z,102694.01
2018-12-13T02:47:38.589Z,102685.15
2018-12-13T02:50:06.492Z,102690.89
2018-12-13T02:52:34.306Z,102683.82
2018-12-13T02:55:02.118Z,102688.17
2018-12-13T02:57:29.888Z,102682.46
2018-12-13T02:59:57.650Z,102682.06
2018-12-13T03:02:25.365Z,102676.70
2018-12-13T03:04:53.141Z,102680.13
2018-12-13T03:07:20.878Z,102667.17
2018-12-13T03:09:48.577Z,102665.61
2018-12-13T03:12:16.355Z,102656.68
2018-12-13T03:14:44.625Z,102664.78
2018-12-13T03:17:12.525Z,102660.06
2018-12-13T03:19:40.263Z,102667.73
2018-12-13T03:22:08.009Z,102659.41
2018-12-13T03:24:35.799Z,102657.86
2018-12-13T03:27:03.534Z,102654.75
2018-12-13T03:29:31.316Z,102652.81
2018-12-13T03:31:59.070Z,102648.09
2018-12-13T03:34:26.884Z,102650.55
2018-12-13T03:36:54.651Z,102653.48
2018-12-13T03:39:22.417Z,102647.94
2018-12-13T03:41:50.177Z,102642.37
2018-12-13T03:44:17.931Z,102644.64
2018-12-13T03:46:45.831Z,102641.98
2018-12-13T03:49:13.698Z,102638.77
2018-12-13T03:51:41.440Z,102638.77
2018-12-13T03:54:09.190Z,102645.73
2018-12-13T03:56:36.921Z,102637.59
2018-12-13T03:59:04.702Z,102641.73
2018-12-13T04:01:32.489Z,102634.30
2018-12-13T04:04:00.225Z,102633.87
2018-12-13T04:06:27.982Z,102627.67
2018-12-13T04:08:55.735Z,102630.84
2018-12-13T04:11:23.493Z,102637.56
2018-12-13T04:13:51.286Z,102636.35
2018-12-13T04:16:19.123Z,102635.84
2018-12-13T04:18:47.139Z,102639.98
2018-12-13T04:21:14.924Z,102637.95
2018-12-13T04:23:42.647Z,102630.61
2018-12-13T04:26:10.416Z,102638.83
2018-12-13T04:28:38.156Z,102628.06
2018-12-13T04:31:05.857Z,102628.33
2018-12-13T04:33:33.617Z,102624.27
2018-12-13T04:36:01.344Z,102625.28
2018-12-13T04:38:29.073Z,102620.25
2018-12-13T04:40:56.817Z,102622.80
2018-12-13T04:43:24.569Z,102610.35
2018-12-13T04:45:52.297Z,102610.52
2018-12-13T04:48:20.085Z,102614.60
2018-12-13T04:50:47.856Z,102615.29
2018-12-13T04:53:15.617Z,102618.75
2018-12-13T04:55:43.363Z,102617.59
2018-12-13T04:58:11.085Z,102606.41
2018-12-13T05:00:38.890Z,102609.52
2018-12-13T05:03:06.669Z,102618.75
2018-12-13T05:05:34.392Z,102618.30
2018-12-13T05:08:02.103Z,102613.17
2018-12-13T05:10:43.164Z,102609.94
2018-12-13T05:13:10.860Z,102612.39
2018-12-13T05:15:38.612Z,102603.70
2018-12-13T05:18:06.353Z,102616.56
2018-12-13T05:20:34.908Z,102616.52
2018-12-13T05:23:02.609Z,102618.56
2018-12-13T05:25:30.408Z,102618.39
2018-12-13T05:27:58.234Z,102612.58
2018-12-13T05:30:25.993Z,102608.70
2018-12-13T05:32:53.719Z,102614.27
2018-12-13T05:35:21.473Z,102613.88
2018-12-13T05:37:49.205Z,102626.16
2018-12-13T05:40:16.947Z,102614.58
2018-12-13T05:42:44.735Z,102613.94
2018-12-13T05:45:12.528Z,102607.59
2018-12-13T05:47:40.354Z,102605.84
2018-12-13T05:50:08.316Z,102601.09
2018-12-13T05:52:36.008Z,102595.06
2018-12-13T05:55:04.013Z,102604.02
2018-12-13T05:57:31.789Z,102608.05
2018-12-13T05:59:59.602Z,102619.86
2018-12-13T06:02:27.408Z,102607.55
2018-12-13T06:04:55.176Z,102601.69
2018-12-13T06:07:22.921Z,102602.20
2018-12-13T06:09:50.684Z,102601.09
2018-12-13T06:12:18.430Z,102609.89
2018-12-13T06:14:46.179Z,102602.93
2018-12-13T06:17:13.978Z,102614.42
2018-12-13T06:19:41.722Z,102609.16
2018-12-13T06:22:09.530Z,102609.31
2018-12-13T06:24:37.920Z,102627.55
2018-12-13T06:27:05.687Z,102608.97
2018-12-13T06:29:33.453Z,102620.94
2018-12-13T06:32:01.182Z,102617.91
2018-12-13T06:34:28.942Z,102618.06
2018-12-13T06:36:56.718Z,102617.83
2018-12-13T06:39:24.563Z,102630.36
2018-12-13T06:41:52.325Z,102628.30
2018-12-13T06:44:20.109Z,102634.69
2018-12-13T06:46:47.846Z,102631.22
2018-12-13T06:49:15.596Z,102629.33
2018-12-13T06:51:43.360Z,102628.70
2018-12-13T06:54:11.101Z,102632.76
2018-12-13T06:56:38.869Z,102639.26
2018-12-13T06:59:06.617Z,102637.48
2018-12-13T07:01:34.397Z,102634.49
2018-12-13T07:04:02.375Z,102643.98
2018-12-13T07:06:31.121Z,102648.27
2018-12-13T07:08:58.925Z,102639.02
2018-12-13T07:11:26.642Z,102646.26
2018-12-13T07:13:54.412Z,102649.52
2018-12-13T07:16:22.194Z,102646.69
2018-12-13T07:18:49.990Z,102650.19
2018-12-13T07:21:17.751Z,102646.26
2018-12-13T07:23:45.566Z,102641.14
2018-12-13T07:26:13.378Z,102638.33
2018-12-13T07:28:41.138Z,102650.21
2018-12-13T07:31:08.901Z,102648.91
2018-12-13T07:33:36.600Z,102648.03
2018-12-13T07:36:04.368Z,102644.92
2018-12-13T07:38:32.084Z,102640.84
2018-12-13T07:40:59.900Z,102647.98
2018-12-13T07:43:27.652Z,102640.34
2018-12-13T07:45:55.343Z,102635.45
2018-12-13T07:49:27.715Z,102639.07
2018-12-13T07:51:55.493Z,102632.30
2018-12-13T07:54:23.252Z,102635.17
2018-12-13T07:56:50.956Z,102624.84
2018-12-13T07:59:18.803Z,102629.02
2018-12-13T08:01:46.720Z,102629.86
2018-12-13T08:04:14.856Z,102633.98
2018-12-13T08:06:42.728Z,102634.05
2018-12-13T08:09:10.510Z,102633.72
2018-12-13T08:11:38.278Z,102636.58
2018-12-13T08:14:06.068Z,102627.56
2018-12-13T08:16:33.840Z,102638.89
2018-12-13T08:19:02.182Z,102642.19
2018-12-13T08:21:30.104Z,102637.77
2018-12-13T08:23:57.866Z,102644.70
2018-12-13T08:26:25.643Z,102644.77
2018-12-13T08:28:53.361Z,102641.09
2018-12-13T08:31:21.129Z,102643.75
2018-12-13T08:33:49.146Z,102641.70
2018-12-13T08:36:16.888Z,102646.89
2018-12-13T08:38:44.709Z,102649.84
2018-12-13T08:41:12.428Z,102640.61
2018-12-13T08:43:40.198Z,102647.06
2018-12-13T08:46:08.037Z,102648.62
2018-12-13T08:48:35.801Z,102656.13
2018-12-13T08:51:03.677Z,102654.39
2018-12-13T08:53:31.838Z,102655.62
2018-12-13T08:55:59.615Z,102655.91
2018-12-13T08:58:27.611Z,102662.77
2018-12-13T09:00:55.405Z,102652.92
2018-12-13T09:03:23.215Z,102654.62
2018-12-13T09:05:50.954Z,102652.30
2018-12-13T09:08:18.718Z,102650.28
2018-12-13T09:10:46.420Z,102653.40
2018-12-13T09:13:15.035Z,102665.33
2018-12-13T09:15:42.794Z,102665.33
2018-12-13T09:18:10.584Z,102659.42
2018-12-13T09:20:38.294Z,102662.22
2018-12-13T09:23:06.117Z,102660.56
2018-12-13T09:25:33.868Z,102656.11
2018-12-13T09:28:01.598Z,102654.81
2018-12-13T09:30:29.344Z,102658.95
2018-12-13T09:32:57.125Z,102658.59
2018-12-13T09:35:24.949Z,102658.83
2018-12-13T09:37:52.745Z,102660.02
2018-12-13T09:40:20.542Z,102653.70
2018-12-13T09:42:48.276Z,102657.69
2018-12-13T09:45:16.113Z,102654.05
2018-12-13T09:47:43.873Z,102657.86
2018-12-13T09:50:11.796Z,102654.95
2018-12-13T09:52:39.713Z,102654.44
2018-12-13T09:55:07.485Z,102657.50
2018-12-13T09:57:35.589Z,102648.00
2018-12-13T10:00:05.116Z,102655.17
2018-12-13T10:02:32.908Z,102646.03
2018-12-13T10:05:00.648Z,102653.33
2018-12-13T10:07:28.392Z,102643.86
2018-12-13T10:09:56.114Z,102642.64
2018-12-13T10:12:23.903Z,102634.51
2018-12-13T10:14:51.665Z,102638.55
2018-12-13T10:17:19.455Z,102642.19
2018-12-13T10:19:47.272Z,102640.07
2018-12-13T10:22:15.048Z,102634.02
2018-12-13T10:24:42.805Z,102631.98
2018-12-13T10:27:10.572Z,102635.62
2018-12-13T10:29:38.338Z,102627.42
2018-12-13T10:32:06.135Z,102620.72
2018-12-13T10:34:33.916Z,102618.91
2018-12-13T10:37:01.700Z,102624.66
2018-12-13T10:39:30.145Z,102613.20
2018-12-13T10:41:57.874Z,102617.50
2018-12-13T10:44:32.844Z,102618.06
2018-12-13T10:47:00.629Z,102615.52
2018-12-13T10:49:28.549Z,102621.40
2018-12-13T10:51:56.304Z,102616.55
2018-12-13T10:54:24.190Z,102620.45
2018-12-13T10:56:51.977Z,102612.31
2018-12-13T10:59:19.765Z,102611.98
2018-12-13T11:01:53.011Z,102612.42
2018-12-13T11:04:20.735Z,102610.17
2018-12-13T11:06:48.461Z,102605.23
2018-12-13T11:09:16.216Z,102610.05
2018-12-13T11:11:43.965Z,102604.69
2018-12-13T11:14:11.696Z,102607.05
2018-12-13T11:16:39.732Z,102607.27
2018-12-13T11:19:07.533Z,102604.31
2018-12-13T11:21:35.464Z,102597.72
2018-12-13T11:24:03.337Z,102593.89
2018-12-13T11:26:31.132Z,102589.99
2018-12-13T11:29:35.129Z,102593.70
2018-12-13T11:32:02.948Z,102590.97
2018-12-13T11:34:30.755Z,102596.23
2018-12-13T11:36:58.552Z,102590.44
2018-12-13T11:39:26.324Z,102600.73
2018-12-13T11:41:54.061Z,102595.01
2018-12-13T11:44:21.918Z,102599.80
2018-12-13T11:46:49.752Z,102596.70
2018-12-13T11:49:17.543Z,102597.23
2018-12-13T11:51:45.307Z,102604.37
2018-12-13T11:54:41.216Z,102592.09
2018-12-13T11:57:09.000Z,102595.82
2018-12-13T11:59:36.743Z,102592.36
2018-12-13T12:02:04.503Z,102588.25
2018-12-13T12:04:32.291Z,102585.87
2018-12-13T12:07:00.074Z,102592.24
2018-12-13T12:09:27.863Z,102595.07
2018-12-13T12:11:55.763Z,102588.47
2018-12-13T12:14:23.969Z,102596.53
2018-12-13T12:16:51.877Z,102588.67
2018-12-13T12:19:19.661Z,102587.50
2018-12-13T12:21:48.050Z,102586.69
2018-12-13T12:24:15.765Z,102592.06
2018-12-13T12:26:44.193Z,102587.45
2018-12-13T12:29:11.934Z,102589.52
2018-12-13T12:31:39.723Z,102591.36
2018-12-13T12:34:07.560Z,102590.08
2018-12-13T12:36:35.267Z,102589.03
2018-12-13T12:39:05.215Z,102582.81
2018-12-13T12:41:33.014Z,102583.91
2018-12-13T12:44:00.732Z,102578.62
2018-12-13T12:46:28.468Z,102571.96
2018-12-13T12:48:56.204Z,102575.28
2018-12-13T12:51:23.985Z,102575.77
2018-12-13T12:53:51.699Z,102570.83
2018-12-13T12:56:19.438Z,102569.95
2018-12-13T12:58:47.203Z,102571.25
2018-12-13T13:01:14.916Z,102574.14
2018-12-13T13:03:42.661Z,102573.66
2018-12-13T13:06:10.434Z,102572.11
2018-12-13T13:08:38.211Z,102568.25
2018-12-13T13:11:06.077Z,102566.41
2018-12-13T13:13:33.821Z,102561.12
2018-12-13T13:16:01.575Z,102558.50
2018-12-13T13:18:29.334Z,102557.78
2018-12-13T13:20:57.049Z,102550.77
2018-12-13T13:23:24.841Z,102553.17
2018-12-13T13:25:52.604Z,102552.58
2018-12-13T13:28:20.333Z,102545.07
2018-12-13T13:30:48.045Z,102550.64
2018-12-13T13:33:15.845Z,102547.24
2018-12-13T13:35:43.564Z,102549.16
2018-12-13T13:38:11.304Z,102545.77
2018-12-13T13:40:39.096Z,102541.87
2018-12-13T13:43:06.901Z,102541.66
2018-12-13T13:45:34.668Z,102538.98
2018-12-13T13:48:02.463Z,102542.77
2018-12-13T13:50:30.212Z,102540.95
2018-12-13T13:52:58.058Z,102531.42
2018-12-13T13:55:25.833Z,102534.44
2018-12-13T13:57:53.599Z,102536.13
2018-12-13T14:00:21.386Z,102524.39
2018-12-13T14:02:49.151Z,102525.20
2018-12-13T14:05:16.891Z,102523.78
2018-12-13T14:07:44.680Z,102522.34
2018-12-13T14:10:12.564Z,102531.13
2018-12-13T14:12:40.318Z,102522.69
2018-12-13T14:15:08.381Z,102517.34
2018-12-13T14:17:36.097Z,102523.16
2018-12-13T14:20:04.132Z,102519.05
2018-12-13T14:22:31.921Z,102524.66
2018-12-13T14:24:59.688Z,102521.39
2018-12-13T14:27:27.626Z,102522.25
2018-12-13T14:29:55.374Z,102519.41
2018-12-13T14:32:23.125Z,102524.89
2018-12-13T14:34:57.349Z,102524.55
2018-12-13T14:37:20.758Z,102519.70
2018-12-13T14:39:48.545Z,102524.66
2018-12-13T14:42:16.267Z,102534.23
2018-12-13T14:44:44.117Z,102534.61
2018-12-13T14:47:11.897Z,102526.94
2018-12-13T14:49:39.753Z,102525.66
2018-12-13T14:52:07.544Z,102525.56
2018-12-13T14:54:35.297Z,102524.58
2018-12-13T14:57:03.250Z,102521.98
2018-12-13T14:59:30.980Z,102528.48
2018-12-13T15:01:58.797Z,102537.08
2018-12-13T15:04:26.510Z,102528.91
2018-12-13T15:06:54.270Z,102532.87
2018-12-13T15:09:22.021Z,102535.75
2018-12-13T15:11:49.777Z,102528.30
2018-12-13T15:14:17.591Z,102531.45
2018-12-13T15:16:45.459Z,102531.94
2018-12-13T15:19:13.215Z,102545.81
2018-12-13T15:21:41.013Z,102542.88
2018-12-13T15:24:08.704Z,102545.45
2018-12-13T15:26:36.486Z,102543.22
2018-12-13T15:29:05.257Z,102548.63
2018-12-13T15:31:33.045Z,102549.41
2018-12-13T15:34:00.878Z,102551.38
2018-12-13T15:36:28.641Z,102551.73
2018-12-13T15:38:56.428Z,102562.41
2018-12-13T15:41:24.260Z,102556.81
2018-12-13T15:43:52.024Z,102556.66
2018-12-13T15:46:19.788Z,102546.30
2018-12-13T15:48:47.763Z,102547.05
2018-12-13T15:51:15.580Z,102553.07
2018-12-13T15:53:43.309Z,102555.33
2018-12-13T15:56:11.071Z,102555.55
2018-12-13T15:58:38.820Z,102556.76
2018-12-13T16:01:06.565Z,102552.50
2018-12-13T16:03:34.306Z,102554.86
2018-12-13T16:06:02.092Z,102550.11
2018-12-13T16:08:29.843Z,102552.23
2018-12-13T16:10:57.932Z,102544.48
2018-12-13T16:13:26.222Z,102547.63
2018-12-13T16:15:54.021Z,102539.78
2018-12-13T16:18:21.770Z,102552.85
2018-12-13T16:20:49.522Z,102538.92
2018-12-13T16:23:17.666Z,102540.70
2018-12-13T16:25:45.427Z,102546.51
2018-12-13T16:28:13.168Z,102543.65
2018-12-13T16:30:40.947Z,102547.53
2018-12-13T16:33:08.745Z,102547.05
2018-12-13T16:35:36.492Z,102548.28
2018-12-13T16:38:06.032Z,102546.64
2018-12-13T16:40:33.876Z,102543.33
2018-12-13T16:43:01.652Z,102541.36
2018-12-13T16:45:29.404Z,102539.33
2018-12-13T16:47:57.186Z,102539.19
2018-12-13T16:50:24.968Z,102545.34
2018-12-13T16:52:53.448Z,102549.52
2018-12-13T16:55:21.281Z,102547.81
2018-12-13T16:57:49.036Z,102545.20
2018-12-13T17:00:16.813Z,102541.84
2018-12-13T17:02:45.332Z,102543.73
2018-12-13T17:05:13.057Z,102536.96
2018-12-13T17:07:40.829Z,102545.50
2018-12-13T17:10:09.134Z,102542.31
2018-12-13T17:12:36.929Z,102534.48
2018-12-13T17:15:05.506Z,102539.28
2018-12-13T17:17:33.315Z,102535.78
2018-12-13T17:20:01.132Z,102536.80
2018-12-13T17:22:29.153Z,102541.31
2018-12-13T17:24:57.104Z,102535.88
2018-12-13T17:27:25.168Z,102535.42
2018-12-13T17:29:53.089Z,102534.03
2018-12-13T17:32:20.974Z,102531.75
2018-12-13T17:34:48.902Z,102529.42
2018-12-13T17:37:16.785Z,102530.33
2018-12-13T17:39:44.671Z,102522.77
2018-12-13T17:42:12.452Z,102527.12
2018-12-13T17:44:40.201Z,102526.16
2018-12-13T17:47:07.981Z,102527.07
2018-12-13T17:49:36.451Z,102531.89
2018-12-13T17:52:04.385Z,102531.80
2018-12-13T17:54:32.192Z,102540.04
2018-12-13T17:56:59.945Z,102540.54
2018-12-13T17:59:27.734Z,102545.66
2018-12-13T18:01:55.657Z,102549.08
2018-12-13T18:04:24.382Z,102545.11
2018-12-13T18:06:52.133Z,102543.16
2018-12-13T18:09:19.920Z,102542.86
2018-12-13T18:11:47.639Z,102543.77
2018-12-13T18:14:15.428Z,102544.05
2018-12-13T18:16:43.559Z,102545.78
2018-12-13T18:19:11.571Z,102547.52
2018-12-13T18:21:39.374Z,102550.09
2018-12-13T18:24:07.209Z,102549.08
2018-12-13T18:26:34.938Z,102542.02
2018-12-13T18:29:02.827Z,102549.42
2018-12-13T18:31:30.529Z,102548.69
2018-12-13T18:33:58.290Z,102556.64
2018-12-13T18:36:26.119Z,102556.74
2018-12-13T18:38:53.825Z,102555.84
2018-12-13T18:41:21.604Z,102554.84
2018-12-13T18:43:49.369Z,102558.30
2018-12-13T18:46:17.148Z,102549.52
2018-12-13T18:48:45.555Z,102549.00
2018-12-13T18:51:13.382Z,102548.86
2018-12-13T18:53:41.109Z,102550.14
2018-12-13T18:56:08.841Z,102546.75
2018-12-13T18:58:36.659Z,102552.73
2018-12-13T19:01:04.388Z,102554.59
2018-12-13T19:03:32.109Z,102554.09
2018-12-13T19:05:59.835Z,102551.65
2018-12-13T19:08:27.825Z,102551.59
2018-12-13T19:10:56.639Z,102541.34
2018-12-13T19:13:25.017Z,102544.23
2018-12-13T19:15:52.944Z,102551.54
2018-12-13T19:18:20.701Z,102552.81
2018-12-13T19:20:48.533Z,102549.38
2018-12-13T19:23:16.331Z,102553.55
2018-12-13T19:25:44.760Z,102548.91
2018-12-13T19:28:12.578Z,102553.55
2018-12-13T19:30:41.002Z,102549.91
2018-12-13T19:33:08.810Z,102544.52
2018-12-13T19:35:36.614Z,102546.45
2018-12-13T19:38:04.400Z,102549.16
2018-12-13T19:40:32.223Z,102545.74
2018-12-13T19:43:00.034Z,102552.74
2018-12-13T19:45:27.816Z,102557.27
2018-12-13T19:47:55.806Z,102560.34
2018-12-13T19:50:23.624Z,102551.14
2018-12-13T19:52:51.432Z,102560.30
2018-12-13T19:55:19.248Z,102557.27
2018-12-13T19:57:47.013Z,102558.61
2018-12-13T20:00:14.752Z,102559.09
2018-12-13T20:02:42.544Z,102554.20
2018-12-13T20:05:10.292Z,102552.91
2018-12-13T20:07:38.034Z,102551.05
2018-12-13T20:10:06.993Z,102554.98
2018-12-13T20:12:34.749Z,102558.20
2018-12-13T20:15:02.584Z,102559.55
2018-12-13T20:17:30.360Z,102559.90
2018-12-13T20:19:58.080Z,102564.50
2018-12-13T20:22:25.810Z,102561.11
2018-12-13T20:24:53.600Z,102559.50
2018-12-13T20:27:21.693Z,102561.41
2018-12-13T20:29:49.521Z,102564.50
2018-12-13T20:32:17.524Z,102568.73
2018-12-13T20:34:45.956Z,102572.66
2018-12-13T20:37:13.972Z,102569.56
2018-12-13T20:39:41.763Z,102565.27
2018-12-13T20:42:09.525Z,102565.62
2018-12-13T20:44:37.286Z,102572.11
2018-12-13T20:47:05.009Z,102570.60
2018-12-13T20:49:33.515Z,102572.27
2018-12-13T20:52:01.394Z,102572.86
2018-12-13T20:54:29.130Z,102573.09
2018-12-13T20:56:56.876Z,102572.23
2018-12-13T20:59:24.659Z,102571.32
2018-12-13T21:01:53.148Z,102577.46
2018-12-13T21:04:21.946Z,102574.66
2018-12-13T21:06:54.141Z,102577.20
2018-12-13T21:09:21.926Z,102579.88
2018-12-13T21:11:49.616Z,102578.50
2018-12-13T21:14:17.335Z,102579.44
2018-12-13T21:16:45.178Z,102573.48
2018-12-13T21:19:12.934Z,102573.94
2018-12-13T21:21:40.670Z,102586.16
2018-12-13T21:24:08.454Z,102582.39
2018-12-13T21:26:36.255Z,102580.86
2018-12-13T21:29:04.138Z,102583.97
2018-12-13T21:31:32.004Z,102585.70
2018-12-13T21:33:59.753Z,102586.68
2018-12-13T21:36:27.514Z,102586.42
2018-12-13T21:38:55.288Z,102586.63
2018-12-13T21:41:23.042Z,102593.55
2018-12-13T21:43:51.072Z,102583.03
2018-12-13T21:46:19.439Z,102586.66
2018-12-13T21:48:47.271Z,102594.73
2018-12-13T21:51:15.042Z,102586.72
2018-12-13T21:53:42.882Z,102590.09
2018-12-13T21:56:10.744Z,102589.86
2018-12-13T21:58:38.530Z,102596.42
2018-12-13T22:01:06.330Z,102592.55
2018-12-13T22:03:34.154Z,102591.59
2018-12-13T22:06:01.929Z,102595.01
2018-12-13T22:08:29.701Z,102595.86
2018-12-13T22:10:57.548Z,102588.73
2018-12-13T22:13:25.306Z,102586.39
2018-12-13T22:15:53.021Z,102586.63
2018-12-13T22:18:20.840Z,102582.55
2018-12-13T22:20:48.612Z,102589.73
2018-12-13T22:23:16.360Z,102596.27
2018-12-13T22:25:44.209Z,102593.16
2018-12-13T22:28:11.991Z,102595.34
2018-12-13T22:30:39.737Z,102593.13
2018-12-13T22:33:07.558Z,102592.17
2018-12-13T22:35:35.288Z,102597.88
2018-12-13T22:38:03.172Z,102599.91
2018-12-13T22:40:30.968Z,102600.38
2018-12-13T22:42:58.740Z,102597.27
2018-12-13T22:45:26.522Z,102601.09
2018-12-13T22:47:55.070Z,102603.13
2018-12-13T22:50:22.806Z,102593.64
2018-12-13T22:52:50.552Z,102595.58
2018-12-13T22:55:18.296Z,102593.14
2018-12-13T22:57:46.042Z,102592.25
2018-12-13T23:00:13.872Z,102595.59
2018-12-13T23:02:41.644Z,102598.10
2018-12-13T23:05:09.437Z,102599.95
2018-12-13T23:07:37.196Z,102589.28
2018-12-13T23:10:05.092Z,102591.08
2018-12-13T23:12:32.945Z,102585.30
2018-12-13T23:15:00.705Z,102585.42
2018-12-13T23:17:28.596Z,102588.05
2018-12-13T23:19:56.412Z,102590.03
2018-12-13T23:22:24.202Z,102587.03
2018-12-13T23:24:52.005Z,102585.80
2018-12-13T23:27:19.784Z,102582.90
2018-12-13T23:29:47.556Z,102589.70
2018-12-13T23:32:15.368Z,102590.19
2018-12-13T23:34:43.089Z,102594.12
2018-12-13T23:37:10.927Z,102592.20
2018-12-13T23:39:38.604Z,102591.33
2018-12-13T23:42:06.349Z,102584.59
2018-12-13T23:44:34.153Z,102587.43
2018-12-13T23:47:01.905Z,102590.73
2018-12-13T23:49:29.734Z,102596.80
2018-12-13T23:51:57.469Z,102595.07
2018-12-13T23:54:25.279Z,102598.22
2018-12-13T23:56:53.102Z,102595.89
2018-12-13T23:59:20.897Z,102593.02
